Talladega, Alabama
Current Conditions -  °F | °C
As of 2:35 AM on Saturday 20 Dec 2014 (Local Time) from KASN Reporting Station
Drizzle Drizzle  
Wind Chill:   Ceiling: 4400
Heat Index:   Visibility: 10mi
Dew Point:   Wind: 5mph
Humidity: 91%   Direction: 50°NE
Pressure: 30.15"   Gusts: NA
Location:  33.43°N, 86.1°W
Report Text: KASN 200835Z AUTO 05004KT 10SM DZ SCT015 BKN044 OVC070 06/05 A3015 RMK AO2 T00580045
Loading
Personal Weather Stations






























Interactive Weather Map New forecast layout! Learn more

10-Day Weather Forecast

Advertisements
Track Severe Weather on mobile